M I D A S
Marine Information and Data Acquisition System
Tripno 893 of the Zeeleeuw from 2005-05-02 06:51:35 to 2005-05-02 15:58:21
Back to CruiseResearch ActivitiesStationsMapUnderway DataData graphs

EquipmentUnitsComment
TimeDGPSUTC
LatitudeDGPSDM.mWGS84
LongitudeDGPSDM.mWGS84
HeadingGyrodeg 
SOGDGPSknotsSpeed over ground
COGDGPSdegCourse over ground
DepthEcho soundermeters200 kHz
Missing or incorrect values are displayed as -999
Navigation data collected by the RV Zeeleeuw from 2005-05-02 06:00:26 to 2005-05-02 16:09:17
Time Latitude Longitude Heading SOG COG Depth
2005-05-02 06:01:31 51°13.594 2°56.102 126.1 -999 180 9.2
2005-05-02 06:02:31 51°13.594 2°56.101 126.1 -999 171 9.1
2005-05-02 06:03:31 51°13.594 2°56.102 126.1 -999 63 9.3
2005-05-02 06:04:31 51°13.594 2°56.102 126.2 -999 257 9.3
2005-05-02 06:05:31 51°13.594 2°56.101 126.2 -999 148 9.3
2005-05-02 06:06:31 51°13.595 2°56.102 126.2 -999 9 9.3
2005-05-02 06:07:31 51°13.595 2°56.102 126.3 -999 356 9.3
2005-05-02 06:08:31 51°13.596 2°56.103 126.3 -999 59 9.3
2005-05-02 06:09:31 51°13.596 2°56.102 126.3 -999 122 9.5
2005-05-02 06:10:31 51°13.595 2°56.101 126.4 -999 352 9.3
2005-05-02 06:11:31 51°13.595 2°56.102 126.4 -999 92 9.3
2005-05-02 06:12:31 51°13.595 2°56.101 126.4 -999 226 9.2
2005-05-02 06:13:31 51°13.595 2°56.102 126.4 -999 97 9.3
2005-05-02 06:14:31 51°13.595 2°56.102 126.4 -999 25 9.3
2005-05-02 06:15:31 51°13.595 2°56.102 126.4 -999 108 9.2
2005-05-02 06:16:31 51°13.595 2°56.102 126.6 -999 354 9.3
2005-05-02 06:17:31 51°13.595 2°56.103 126.6 -999 14 9.3
2005-05-02 06:18:31 51°13.595 2°56.103 126.6 -999 210 9.3
2005-05-02 06:19:31 51°13.595 2°56.103 126.6 -999 160 9.2
2005-05-02 06:20:31 51°13.595 2°56.103 126.7 -999 354 9.3
2005-05-02 06:21:31 51°13.595 2°56.103 126.8 -999 93 9.3
2005-05-02 06:22:31 51°13.595 2°56.103 126.8 -999 348 9.2
2005-05-02 06:23:32 51°13.596 2°56.103 126.8 -999 348 9.3
2005-05-02 06:24:31 51°13.595 2°56.103 126.8 -999 227 9.3
2005-05-02 06:25:31 51°13.595 2°56.103 126.8 -999 185 9.3
2005-05-02 06:26:31 51°13.595 2°56.103 126.8 -999 56 9.3
2005-05-02 06:27:31 51°13.595 2°56.103 126.9 0.1 25 9.3
2005-05-02 06:28:31 51°13.596 2°56.104 126.9 -999 232 9.3
2005-05-02 06:29:31 51°13.596 2°56.104 126.9 -999 8 9.4
2005-05-02 06:30:31 51°13.595 2°56.103 127 -999 224 9.3
2005-05-02 06:31:31 51°13.595 2°56.103 127 -999 112 9.3
2005-05-02 06:32:32 51°13.595 2°56.103 127 -999 29 9.3
2005-05-02 06:33:31 51°13.594 2°56.103 127.1 -999 31 9.3
2005-05-02 06:34:31 51°13.594 2°56.103 127 -999 193 9.2
2005-05-02 06:35:31 51°13.594 2°56.102 126.8 -999 267 9.3
2005-05-02 06:36:31 51°13.595 2°56.102 126.9 -999 196 9.2
2005-05-02 06:37:31 51°13.595 2°56.102 126.9 -999 223 9.3
2005-05-02 06:38:31 51°13.595 2°56.102 126.7 -999 18 9.2
2005-05-02 06:39:31 51°13.596 2°56.101 126.7 -999 202 9.3
2005-05-02 06:40:31 51°13.596 2°56.1 126.7 -999 332 9.3
2005-05-02 06:41:31 51°13.596 2°56.101 126 -999 120 9.3
2005-05-02 06:42:31 51°13.595 2°56.101 126.3 -999 281 9.3
2005-05-02 06:43:31 51°13.593 2°56.102 127.4 0.1 233 9.2
2005-05-02 06:44:31 51°13.594 2°56.102 127.9 -999 271 9.3
2005-05-02 06:45:31 51°13.596 2°56.103 127.9 -999 84 9.3
2005-05-02 06:46:32 51°13.595 2°56.104 127.7 -999 196 9.3
2005-05-02 06:47:31 51°13.595 2°56.101 126.2 0.1 61 9.3
2005-05-02 06:48:31 51°13.595 2°56.092 110.5 1.1 285 9.2
2005-05-02 06:49:31 51°13.609 2°56.039 118 2.8 293 -999
2005-05-02 06:50:31 51°13.637 2°55.958 127.4 3.8 303 -999
2005-05-02 06:51:32 51°13.677 2°55.87 128.4 3.9 306 -999
2005-05-02 06:52:31 51°13.712 2°55.778 115.7 4.1 296 -999
2005-05-02 06:53:31 51°13.725 2°55.714 91.6 1.1 286 12.8
2005-05-02 06:54:31 51°13.722 2°55.709 53.2 1.3 232 -999
2005-05-02 06:55:31 51°13.723 2°55.712 16.3 1.4 189 5.4
2005-05-02 06:56:31 51°13.746 2°55.695 341.9 2.7 343 12.4
2005-05-02 06:57:31 51°13.85 2°55.626 340.8 7.8 337 12
2005-05-02 06:58:31 51°13.977 2°55.537 339.8 8.5 336 12.3
2005-05-02 06:59:31 51°14.113 2°55.435 338.8 9.3 335 12
2005-05-02 07:00:31 51°14.249 2°55.295 324.1 10 323 13.5
2005-05-02 07:01:31 51°14.367 2°55.068 312.4 11.8 310 12.3
2005-05-02 07:02:32 51°14.528 2°54.877 323 12 325 12.2
2005-05-02 07:03:31 51°14.71 2°54.7 329.6 13.4 333 11.8
2005-05-02 07:04:31 51°14.91 2°54.538 331.3 13.5 333 11.4
2005-05-02 07:05:31 51°15.106 2°54.367 331.2 13.5 331 10.8
2005-05-02 07:06:31 51°15.311 2°54.207 333.2 13.8 334 11.5
2005-05-02 07:07:31 51°15.511 2°54.04 329.5 13.5 331 12.2
2005-05-02 07:08:31 51°15.713 2°53.876 332.2 13.6 333 12.9
2005-05-02 07:09:31 51°15.915 2°53.714 332 13.6 334 13.4
2005-05-02 07:10:31 51°16.119 2°53.558 333.4 13.6 335 13.8
2005-05-02 07:11:31 51°16.324 2°53.402 332.3 13.7 334 14
2005-05-02 07:12:31 51°16.529 2°53.243 332.6 13.7 335 14.1
2005-05-02 07:13:31 51°16.728 2°53.075 327.4 13.5 328 13.4
2005-05-02 07:14:31 51°16.918 2°52.888 327.4 13.4 329 11.2
2005-05-02 07:15:31 51°17.112 2°52.703 327.9 13.6 329 12.2
2005-05-02 07:16:31 51°17.307 2°52.519 327.8 13.7 329 12.2
2005-05-02 07:17:31 51°17.503 2°52.335 328.1 13.7 330 12.7
2005-05-02 07:18:31 51°17.701 2°52.153 328.1 13.7 331 12.5
2005-05-02 07:19:31 51°17.896 2°51.969 327.8 13.6 329 12.5
2005-05-02 07:20:31 51°18.086 2°51.775 328.4 13.6 328 12.9
2005-05-02 07:21:31 51°18.279 2°51.585 328.7 13.7 328 13.9
2005-05-02 07:22:32 51°18.478 2°51.396 328.8 13.8 330 15.2
2005-05-02 07:23:31 51°18.672 2°51.212 328.1 13.7 329 16.1
2005-05-02 07:24:31 51°18.867 2°51.025 327.7 13.7 329 16.7
2005-05-02 07:25:31 51°19.061 2°50.838 328.4 13.6 329 16.8
2005-05-02 07:26:31 51°19.254 2°50.651 329.5 13.5 329 15.9
2005-05-02 07:27:31 51°19.446 2°50.472 329.8 13.4 331 14.2
2005-05-02 07:28:31 51°19.641 2°50.295 329.6 13.5 331 14.6
2005-05-02 07:29:31 51°19.836 2°50.118 329.2 13.5 331 16.5
2005-05-02 07:30:31 51°20.033 2°49.941 329.4 13.6 330 18.5
2005-05-02 07:31:31 51°20.228 2°49.76 330.1 13.7 331 21.4
2005-05-02 07:32:31 51°20.428 2°49.585 329.5 13.7 332 24
2005-05-02 07:33:31 51°20.629 2°49.412 329.7 13.8 332 24.6
2005-05-02 07:34:31 51°20.831 2°49.236 328.8 13.8 330 24.7
2005-05-02 07:35:31 51°21.028 2°49.047 326.9 13.9 329 23.7
2005-05-02 07:36:32 51°21.225 2°48.855 326 13.6 327 22.6
2005-05-02 07:37:31 51°21.413 2°48.669 327.2 13.3 328 23.7
2005-05-02 07:38:31 51°21.602 2°48.485 327.3 13.3 329 25
2005-05-02 07:39:31 51°21.791 2°48.301 327 13.3 328 25.2
2005-05-02 07:40:31 51°21.98 2°48.116 327.7 13.5 330 25.3
2005-05-02 07:41:31 51°22.171 2°47.933 327.1 13.4 329 25.6
2005-05-02 07:42:31 51°22.364 2°47.748 327.3 13.5 329 21.1
2005-05-02 07:43:32 51°22.56 2°47.561 327.2 13.7 329 21
2005-05-02 07:44:31 51°22.753 2°47.375 327.5 13.7 329 21.3
2005-05-02 07:45:31 51°22.949 2°47.187 327.3 13.7 329 22.9
2005-05-02 07:46:31 51°23.145 2°46.997 328 13.8 329 21.7
2005-05-02 07:47:31 51°23.339 2°46.799 327.3 13.8 328 26.4
2005-05-02 07:48:32 51°23.534 2°46.601 327.3 13.7 328 26.3
2005-05-02 07:49:31 51°23.726 2°46.408 328.2 13.7 328 30.2
2005-05-02 07:50:32 51°23.921 2°46.218 329 13.6 330 28.2
2005-05-02 07:51:31 51°24.112 2°46.029 328.1 13.7 328 30.9
2005-05-02 07:52:31 51°24.305 2°45.838 328.5 13.6 329 28.2
2005-05-02 07:53:31 51°24.497 2°45.646 327.8 13.7 327 27.5
2005-05-02 07:54:31 51°24.692 2°45.456 328.6 13.7 329 28.1
2005-05-02 07:55:31 51°24.886 2°45.263 328.2 13.6 329 28
2005-05-02 07:56:31 51°25.08 2°45.074 328.5 13.6 330 26
2005-05-02 07:57:31 51°25.275 2°44.886 329 13.7 329 26.4
2005-05-02 07:58:31 51°25.471 2°44.697 329 13.7 329 25.3
2005-05-02 07:59:31 51°25.669 2°44.515 329.5 13.8 329 25.9
2005-05-02 08:00:31 51°25.867 2°44.332 329.2 13.7 330 27.9
2005-05-02 08:01:32 51°26.068 2°44.152 329.5 13.7 331 26
2005-05-02 08:02:31 51°26.266 2°43.977 329.1 13.7 330 27.1
2005-05-02 08:03:31 51°26.463 2°43.799 330.2 13.6 332 27.2
2005-05-02 08:04:31 51°26.656 2°43.613 327.3 13.5 328 26.7
2005-05-02 08:05:31 51°26.846 2°43.421 327.5 13.5 328 27
2005-05-02 08:06:31 51°27.039 2°43.232 327.5 13.5 328 31.8
2005-05-02 08:07:31 51°27.23 2°43.041 328.5 13.5 328 31.6
2005-05-02 08:08:31 51°27.425 2°42.857 328.7 13.6 329 33.3
2005-05-02 08:09:31 51°27.62 2°42.672 328.7 13.7 329 33.2
2005-05-02 08:10:31 51°27.814 2°42.481 328.5 13.6 329 31.7
2005-05-02 08:11:31 51°28.01 2°42.291 328.9 13.8 329 31.8
2005-05-02 08:12:31 51°28.208 2°42.107 328.4 13.7 329 30.4
2005-05-02 08:13:31 51°28.407 2°41.922 328.3 13.8 330 31.3
2005-05-02 08:14:31 51°28.605 2°41.737 328 13.8 330 32.6
2005-05-02 08:15:31 51°28.801 2°41.549 328.3 13.8 329 32.7
2005-05-02 08:16:31 51°28.997 2°41.36 328 13.8 329 32.9
2005-05-02 08:17:31 51°29.195 2°41.173 328.1 13.7 329 34.5
2005-05-02 08:18:31 51°29.391 2°40.985 328.7 13.7 330 33.8
2005-05-02 08:19:31 51°29.586 2°40.794 328.2 13.7 328 34.1
2005-05-02 08:20:31 51°29.78 2°40.599 327.8 13.9 328 36.1
2005-05-02 08:21:31 51°29.976 2°40.403 328.2 13.9 328 37.4
2005-05-02 08:22:32 51°30.172 2°40.204 328.8 13.9 330 35.3
2005-05-02 08:23:31 51°30.378 2°40.035 334.1 14 334 38.6
2005-05-02 08:24:31 51°30.583 2°39.866 333.3 13.9 333 42.3
2005-05-02 08:25:31 51°30.789 2°39.698 333.2 13.9 333 39.2
2005-05-02 08:26:31 51°30.994 2°39.528 333.7 13.9 333 36.6
2005-05-02 08:27:31 51°31.198 2°39.358 333.1 13.7 332 38.7
2005-05-02 08:28:31 51°31.401 2°39.185 333.1 13.9 333 38.5
2005-05-02 08:29:31 51°31.605 2°39.014 333.2 13.9 333 39.6
2005-05-02 08:30:31 51°31.809 2°38.841 332.8 13.9 332 37
2005-05-02 08:31:31 51°32.014 2°38.668 333.6 13.9 333 34
2005-05-02 08:32:31 51°32.219 2°38.495 333 14 331 22.5
2005-05-02 08:33:31 51°32.425 2°38.324 333.8 13.9 334 15.7
2005-05-02 08:34:31 51°32.636 2°38.148 333.7 14.1 333 21.5
2005-05-02 08:35:31 51°32.845 2°37.978 333.1 14.2 333 26.4
2005-05-02 08:36:31 51°33.055 2°37.803 333.1 14.4 333 33.1
2005-05-02 08:37:31 51°33.265 2°37.631 333.8 14.3 334 36.5
2005-05-02 08:38:31 51°33.477 2°37.456 332.7 14.3 332 38.7
2005-05-02 08:39:31 51°33.683 2°37.274 331.3 14.1 331 39.9
2005-05-02 08:40:31 51°33.885 2°37.085 330.7 14 330 41
2005-05-02 08:41:31 51°34.086 2°36.897 330.8 13.9 329 40.2
2005-05-02 08:42:31 51°34.285 2°36.709 331 13.9 330 37.2
2005-05-02 08:43:31 51°34.486 2°36.521 331 13.9 330 36.7
2005-05-02 08:44:31 51°34.684 2°36.33 331.2 13.9 330 31.2
2005-05-02 08:45:31 51°34.882 2°36.14 331.6 13.8 329 31.5
2005-05-02 08:46:31 51°35.081 2°35.952 331.2 13.9 329 33.3
2005-05-02 08:47:31 51°35.282 2°35.77 331.5 13.8 331 37.1
2005-05-02 08:48:31 51°35.482 2°35.586 331 13.9 329 36.8
2005-05-02 08:49:31 51°35.683 2°35.403 331.6 13.9 330 37.1
2005-05-02 08:50:31 51°35.883 2°35.217 331.4 13.9 330 38.3
2005-05-02 08:51:31 51°36.083 2°35.032 331.4 13.9 331 38.1
2005-05-02 08:52:31 51°36.283 2°34.847 331 13.9 331 31.5
2005-05-02 08:53:31 51°36.484 2°34.667 331.5 13.8 331 24.8
2005-05-02 08:54:31 51°36.685 2°34.486 330.9 13.8 330 22.7
2005-05-02 08:55:31 51°36.89 2°34.314 332.3 13.8 333 19.2
2005-05-02 08:56:31 51°37.091 2°34.137 330.7 13.8 330 23.2
2005-05-02 08:57:31 51°37.286 2°33.937 326.2 14 326 30.1
2005-05-02 08:58:31 51°37.479 2°33.727 326.3 14.1 326 34.4
2005-05-02 08:59:31 51°37.672 2°33.513 325.5 14.1 326 37.2
2005-05-02 09:00:31 51°37.866 2°33.3 326 14.1 325 39.8
2005-05-02 09:01:31 51°38.061 2°33.087 326.1 14.2 325 41.4
2005-05-02 09:02:31 51°38.256 2°32.875 326.1 14 326 42.8
2005-05-02 09:03:31 51°38.448 2°32.662 325.9 14.1 326 42.2
2005-05-02 09:04:31 51°38.61 2°32.486 323.6 9.5 325 42.5
2005-05-02 09:05:31 51°38.7 2°32.387 313.7 4.9 322 41.3
2005-05-02 09:06:31 51°38.75 2°32.322 312.4 3.6 326 41.9
2005-05-02 09:07:31 51°38.798 2°32.275 315 3.3 332 41
2005-05-02 09:08:31 51°38.845 2°32.239 314.3 3.1 333 40.5
2005-05-02 09:09:31 51°38.89 2°32.214 322.6 2.7 343 40.9
2005-05-02 09:10:31 51°38.926 2°32.192 305.4 2.1 336 41.5
2005-05-02 09:11:31 51°38.954 2°32.177 300.6 1.6 347 40.1
2005-05-02 09:12:31 51°38.975 2°32.182 289.2 1.3 35 40.6
2005-05-02 09:13:31 51°38.993 2°32.206 292.7 1.4 40 40.6
2005-05-02 09:14:31 51°39.01 2°32.234 303.7 1.4 46 40.8
2005-05-02 09:15:31 51°39.029 2°32.257 315 1.4 25 42
2005-05-02 09:16:31 51°39.1 2°32.249 5.6 5 2 40.9
2005-05-02 09:17:31 51°39.159 2°32.332 78.1 5 57 38.2
2005-05-02 09:18:31 51°39.136 2°32.428 158.7 3.6 146 41.2
2005-05-02 09:19:31 51°39.094 2°32.422 218.1 2.1 211 42.2
2005-05-02 09:20:31 51°39.073 2°32.389 223.5 1.7 220 41.2
2005-05-02 09:21:31 51°39.056 2°32.356 235.1 1.6 242 41.5
2005-05-02 09:22:31 51°39.043 2°32.326 217.3 1.1 211 42.2
2005-05-02 09:23:31 51°39.027 2°32.316 217.7 1.2 214 41.2
2005-05-02 09:24:31 51°39.018 2°32.283 250.1 1.5 266 35.6
2005-05-02 09:25:31 51°39.016 2°32.251 237 1 253 41.3
2005-05-02 09:26:31 51°39.002 2°32.237 203.7 0.6 188 40
2005-05-02 09:27:31 51°39.003 2°32.242 200.1 0.2 94 40.5
2005-05-02 09:28:31 51°39.003 2°32.254 164.4 0.7 51 41
2005-05-02 09:29:31 51°39.023 2°32.265 149.8 1.2 18 4.8
2005-05-02 09:30:31 51°39.045 2°32.272 141.5 1.6 1 40.5
2005-05-02 09:31:31 51°39.075 2°32.264 127.8 1.6 348 39.2
2005-05-02 09:32:31 51°39.099 2°32.256 119.8 1.4 351 40.8
2005-05-02 09:33:31 51°39.1 2°32.289 152.2 1.5 118 38.8
2005-05-02 09:34:31 51°39.073 2°32.315 178.3 2 154 39.3
2005-05-02 09:35:31 51°39.045 2°32.309 219.2 1.4 212 40.7
2005-05-02 09:36:31 51°39.032 2°32.29 216 1 212 37.7
2005-05-02 09:37:31 51°39.018 2°32.278 221.4 1 211 36.1
2005-05-02 09:38:31 51°39.007 2°32.255 227.1 1.2 233 40.8
2005-05-02 09:39:31 51°39.001 2°32.231 233.6 0.9 260 39.3
2005-05-02 09:40:31 51°39.007 2°32.223 246.2 0.7 2 39.4
2005-05-02 09:41:31 51°39.024 2°32.25 265.8 1.7 53 4.8
2005-05-02 09:42:31 51°39.039 2°32.282 273.1 1.5 53 39.5
2005-05-02 09:43:31 51°39.055 2°32.302 272.6 0.9 358 38.9
2005-05-02 09:44:31 51°39.046 2°32.264 225.6 2.4 230 40.4
2005-05-02 09:45:31 51°39.022 2°32.231 208.7 1.7 209 40.7
2005-05-02 09:46:31 51°39.003 2°32.226 188.4 1.3 180 39.3
2005-05-02 09:47:31 51°39.001 2°32.238 174.9 0.7 101 40.2
2005-05-02 09:48:31 51°39.003 2°32.26 151.5 0.9 55 40.3
2005-05-02 09:49:31 51°39.014 2°32.281 138.9 1.1 50 36.8
2005-05-02 09:50:31 51°39.023 2°32.31 125.5 1.2 61 41.6
2005-05-02 09:51:32 51°39.033 2°32.337 121.6 1.2 56 41.7
2005-05-02 09:52:31 51°39.045 2°32.363 123.8 1.2 52 41.9
2005-05-02 09:53:31 51°39.057 2°32.387 127.3 1 53 41.5
2005-05-02 09:54:31 51°39.068 2°32.409 130.8 1 47 40.8
2005-05-02 09:55:31 51°39.081 2°32.428 135 1.1 45 41.3
2005-05-02 09:56:31 51°39.092 2°32.445 139 0.9 40 41
2005-05-02 09:57:31 51°39.104 2°32.461 142.9 0.9 39 41.9
2005-05-02 09:58:31 51°39.115 2°32.475 150.6 0.9 37 41.5
2005-05-02 09:59:31 51°39.127 2°32.487 156.9 0.8 33 41.3
2005-05-02 10:00:31 51°39.138 2°32.5 161.4 0.8 33 41.8
2005-05-02 10:01:31 51°39.133 2°32.517 177 1.4 155 41.6
2005-05-02 10:02:31 51°39.102 2°32.505 214.6 2.4 212 41.2
2005-05-02 10:03:31 51°39.072 2°32.445 231.1 3.2 235 41.1
2005-05-02 10:04:31 51°39.039 2°32.37 231.2 3.6 234 41.7
2005-05-02 10:05:31 51°39.014 2°32.288 243.8 3 247 38.2
2005-05-02 10:06:31 51°39.002 2°32.23 241.9 1.9 262 39.5
2005-05-02 10:07:32 51°38.999 2°32.199 239.8 0.8 270 40.3
2005-05-02 10:08:31 51°39.001 2°32.18 236.3 0.6 280 40.4
2005-05-02 10:09:32 51°39.004 2°32.168 230 0.5 297 39.8
2005-05-02 10:10:31 51°39.006 2°32.159 220.3 0.5 245 39.7
2005-05-02 10:11:31 51°38.985 2°32.165 163.9 1.9 145 40
2005-05-02 10:12:31 51°38.972 2°32.211 129.8 1.2 87 40.2
2005-05-02 10:13:31 51°38.983 2°32.227 130.5 0.9 34 41
2005-05-02 10:14:31 51°38.997 2°32.24 123 1 33 40.9
2005-05-02 10:15:32 51°39.012 2°32.254 116.5 1 29 40.3
2005-05-02 10:16:32 51°39.028 2°32.26 109 1.2 348 41.9
2005-05-02 10:17:31 51°39.047 2°32.227 98.6 1.5 313 39.1
2005-05-02 10:18:31 51°39.061 2°32.244 99.6 2.1 72 40.1
2005-05-02 10:19:31 51°39.039 2°32.306 163.3 3.3 151 40
2005-05-02 10:20:31 51°38.998 2°32.262 239.8 3.1 241 28.6
2005-05-02 10:21:31 51°38.985 2°32.197 252.3 1.3 270 39.5
2005-05-02 10:22:31 51°38.991 2°32.183 258.3 0.7 316 39.7
2005-05-02 10:23:31 51°39 2°32.169 266.7 0.7 316 40
2005-05-02 10:24:31 51°39.011 2°32.157 272.2 0.8 333 39.5
2005-05-02 10:25:31 51°39.023 2°32.174 280.1 1 42 5.2
2005-05-02 10:26:31 51°39.035 2°32.188 288.4 0.8 36 39.2
2005-05-02 10:27:31 51°39.047 2°32.199 294.6 0.8 25 39.9
2005-05-02 10:28:31 51°39.06 2°32.207 300.6 0.9 17 39.3
2005-05-02 10:29:31 51°39.074 2°32.213 305.7 0.8 14 39.7
2005-05-02 10:30:31 51°39.088 2°32.217 307.3 0.9 8 39.2
2005-05-02 10:31:31 51°39.102 2°32.219 307 1 6 39.3
2005-05-02 10:32:31 51°39.117 2°32.221 304 0.9 3 39.1
2005-05-02 10:33:31 51°39.128 2°32.183 259.1 2.3 267 39.5
2005-05-02 10:34:31 51°39.096 2°32.147 188.2 2.8 180 39.5
2005-05-02 10:35:31 51°39.044 2°32.185 163.6 3.3 154 39.2
2005-05-02 10:36:32 51°39.005 2°32.23 149.3 2.7 136 39.4
2005-05-02 10:37:31 51°39.001 2°32.249 141.5 0.5 51 40.7
2005-05-02 10:38:31 51°39.007 2°32.26 143.3 0.6 48 40.3
2005-05-02 10:39:31 51°39.014 2°32.273 142.8 0.7 46 38.6
2005-05-02 10:40:31 51°39.022 2°32.285 135.5 0.7 37 37
2005-05-02 10:41:32 51°39.031 2°32.296 128.1 0.6 35 39.1
2005-05-02 10:42:31 51°39.041 2°32.307 122.6 0.7 36 41.1
2005-05-02 10:43:31 51°39.051 2°32.317 119.9 0.7 31 41.1
2005-05-02 10:44:31 51°39.061 2°32.327 115.4 0.8 29 41.4
2005-05-02 10:45:31 51°39.071 2°32.337 112.2 0.8 30 40.9
2005-05-02 10:46:31 51°39.064 2°32.382 136 3.2 122 40.8
2005-05-02 10:47:31 51°39.009 2°32.373 223.4 4 222 41.1
2005-05-02 10:48:31 51°38.994 2°32.282 262.6 3.6 266 39.5
2005-05-02 10:49:31 51°38.996 2°32.204 274.4 3 280 40.1
2005-05-02 10:50:31 51°39.007 2°32.176 309.8 0.6 349 39.6
2005-05-02 10:51:31 51°39.017 2°32.175 329.4 0.6 5 39.1
2005-05-02 10:52:31 51°39.027 2°32.178 348.2 0.6 18 39.7
2005-05-02 10:53:31 51°39.037 2°32.184 3.3 0.6 17 38.7
2005-05-02 10:54:31 51°39.047 2°32.188 14.8 0.7 18 39.4
2005-05-02 10:55:31 51°39.057 2°32.194 24.7 0.7 20 38.2
2005-05-02 10:56:31 51°39.069 2°32.201 33.9 0.7 20 39.4
2005-05-02 10:57:31 51°39.078 2°32.209 39.4 0.7 22 38.9
2005-05-02 10:58:31 51°39.089 2°32.217 41.4 0.7 27 39.3
2005-05-02 10:59:31 51°39.097 2°32.229 40.5 0.7 33 38.8
2005-05-02 11:00:31 51°39.107 2°32.239 37.3 0.7 35 39.9
2005-05-02 11:01:32 51°39.116 2°32.249 35.5 0.7 34 38
2005-05-02 11:02:31 51°39.126 2°32.258 32.5 0.7 28 39.5
2005-05-02 11:03:31 51°39.136 2°32.267 30.2 0.7 28 40.4
2005-05-02 11:04:31 51°39.147 2°32.273 28.3 0.7 24 39.9
2005-05-02 11:05:31 51°39.158 2°32.28 24.5 0.7 17 40.5
2005-05-02 11:06:31 51°39.17 2°32.287 20.8 0.7 21 40.5
2005-05-02 11:07:31 51°39.18 2°32.293 15.9 0.7 19 39.6
2005-05-02 11:08:31 51°39.191 2°32.299 11.2 0.7 35 36.6
2005-05-02 11:09:31 51°39.201 2°32.304 7.9 0.7 25 36.1
2005-05-02 11:10:31 51°39.211 2°32.309 4.2 0.6 16 37.3
2005-05-02 11:11:31 51°39.228 2°32.31 349.9 1.7 350 37.3
2005-05-02 11:12:31 51°39.255 2°32.278 304.1 2.2 307 37.4
2005-05-02 11:13:31 51°39.261 2°32.219 255.8 2.3 267 37.3
2005-05-02 11:14:32 51°39.236 2°32.175 209 2.4 211 38.8
2005-05-02 11:15:31 51°39.206 2°32.157 200.7 1.7 198 38.6
2005-05-02 11:16:31 51°39.184 2°32.143 206.6 1.2 205 36.8
2005-05-02 11:17:31 51°39.169 2°32.13 211.9 1 212 39
2005-05-02 11:18:31 51°39.157 2°32.118 214 0.8 218 39.4
2005-05-02 11:19:31 51°39.144 2°32.109 201 0.9 197 39.6
2005-05-02 11:20:31 51°39.133 2°32.106 189.8 0.6 181 38.8
2005-05-02 11:21:31 51°39.123 2°32.107 184.9 0.6 177 38.2
2005-05-02 11:22:31 51°39.116 2°32.109 180.9 0.4 171 38.8
2005-05-02 11:23:31 51°39.111 2°32.111 181.4 0.3 166 39
2005-05-02 11:24:32 51°39.107 2°32.114 183.7 0.2 146 39.6
2005-05-02 11:25:31 51°39.104 2°32.117 186.1 0.1 151 39.8
2005-05-02 11:26:31 51°39.102 2°32.119 187.8 0.1 133 39.5
2005-05-02 11:27:31 51°39.101 2°32.121 190 0.1 118 39.4
2005-05-02 11:28:32 51°39.1 2°32.124 191 0.1 102 39.4
2005-05-02 11:29:31 51°39.099 2°32.128 193.1 0.1 103 39.5
2005-05-02 11:30:32 51°39.099 2°32.13 195.9 0.1 106 39.4
2005-05-02 11:31:31 51°39.1 2°32.133 198.5 0.2 39 39.4
2005-05-02 11:32:31 51°39.103 2°32.138 199 0.2 34 39.4
2005-05-02 11:33:31 51°39.106 2°32.143 194.4 0.2 50 38.4
2005-05-02 11:34:31 51°39.108 2°32.149 185.7 0.2 54 37.4
2005-05-02 11:35:31 51°39.111 2°32.154 177 0.2 49 38
2005-05-02 11:36:31 51°39.113 2°32.158 170.3 0.2 59 37.8
2005-05-02 11:37:31 51°39.114 2°32.163 166.4 0.1 65 38.2
2005-05-02 11:38:31 51°39.115 2°32.168 163.8 0.2 60 38.2
2005-05-02 11:39:32 51°39.119 2°32.17 157.4 0.3 8 37.9
2005-05-02 11:40:32 51°39.123 2°32.172 149.5 0.3 25 38.9
2005-05-02 11:41:31 51°39.126 2°32.174 142.7 0.2 29 38.7
2005-05-02 11:42:31 51°39.129 2°32.177 136.8 0.1 5 38.7
2005-05-02 11:43:31 51°39.131 2°32.18 135 0.2 41 38.8
2005-05-02 11:44:31 51°39.133 2°32.183 136.4 0.1 48 39.7
2005-05-02 11:45:31 51°39.135 2°32.186 138.5 0.2 54 39.9
2005-05-02 11:46:31 51°39.137 2°32.189 141.6 0.2 49 39.9
2005-05-02 11:47:31 51°39.138 2°32.192 143.2 0.1 48 39.3
2005-05-02 11:48:31 51°39.14 2°32.196 144.6 0.3 48 38.9
2005-05-02 11:49:32 51°39.141 2°32.199 147.5 -999 96 38.7
2005-05-02 11:50:31 51°39.131 2°32.207 165.1 1.1 160 39
2005-05-02 11:51:31 51°39.104 2°32.213 179.2 2.1 176 38.8
2005-05-02 11:52:31 51°39.055 2°32.207 186.5 3.3 185 38.2
2005-05-02 11:53:31 51°39.006 2°32.193 193.4 2.6 190 39.2
2005-05-02 11:54:32 51°38.973 2°32.19 165.6 1 178 39.3
2005-05-02 11:55:32 51°38.959 2°32.205 127.3 1.9 135 39.2
2005-05-02 11:56:31 51°38.953 2°32.215 99.4 0.3 242 39.5
2005-05-02 11:57:32 51°38.954 2°32.199 76.6 0.8 80 4.7
2005-05-02 11:58:31 51°38.959 2°32.214 45.7 0.3 55 40.1
2005-05-02 11:59:32 51°38.957 2°32.211 31.2 -999 256 40
2005-05-02 12:00:31 51°38.963 2°32.214 31.4 0.6 21 39.6
2005-05-02 12:01:31 51°38.978 2°32.225 38.2 1.2 29 40.1
2005-05-02 12:02:31 51°38.982 2°32.224 44.6 0.2 270 40.3
2005-05-02 12:03:31 51°38.983 2°32.221 47.9 0.1 355 40.3
2005-05-02 12:04:31 51°38.983 2°32.218 48.2 0.3 240 40.1
2005-05-02 12:05:31 51°38.987 2°32.221 48.6 1 37 40.3
2005-05-02 12:06:31 51°39.01 2°32.252 47.9 1.9 40 39.6
2005-05-02 12:07:31 51°39.03 2°32.285 62.2 1.5 53 36.1
2005-05-02 12:08:31 51°39.039 2°32.328 86.2 1.7 80 41.1
2005-05-02 12:09:31 51°39.04 2°32.368 96.8 1.6 94 40.8
2005-05-02 12:10:31 51°39.053 2°32.417 50.8 2.4 50 40.3
2005-05-02 12:11:32 51°39.099 2°32.418 345.3 3.2 336 40.9
2005-05-02 12:12:31 51°39.122 2°32.342 277.2 3.5 284 37.1
2005-05-02 12:13:31 51°39.111 2°32.27 245 2.6 245 38
2005-05-02 12:14:31 51°39.084 2°32.224 214.6 2.1 219 38.7
2005-05-02 12:15:31 51°39.066 2°32.202 211.5 1.3 214 38.6
2005-05-02 12:16:32 51°39.049 2°32.185 207.2 1.2 219 38.6
2005-05-02 12:17:31 51°39.033 2°32.172 203.6 1 205 38.7
2005-05-02 12:18:31 51°39.02 2°32.16 200.2 0.8 200 38.6
2005-05-02 12:19:31 51°39.008 2°32.15 197 0.7 193 39
2005-05-02 12:20:31 51°38.994 2°32.141 185 1.3 188 39.2
2005-05-02 12:21:31 51°38.968 2°32.142 165.4 1.6 182 38.9
2005-05-02 12:22:31 51°38.947 2°32.149 153.1 1.2 159 38.4
2005-05-02 12:23:31 51°38.93 2°32.159 142.6 1 157 39.1
2005-05-02 12:24:31 51°38.917 2°32.169 136.1 0.8 155 39.7
2005-05-02 12:25:31 51°38.907 2°32.177 136.1 0.7 162 39.8
2005-05-02 12:26:31 51°38.897 2°32.182 139.1 0.6 163 39.4
2005-05-02 12:27:31 51°38.888 2°32.185 140.1 0.5 175 39.2
2005-05-02 12:28:31 51°38.881 2°32.185 139.3 0.4 173 39.6
2005-05-02 12:29:31 51°38.875 2°32.185 138.1 0.4 180 39.7
2005-05-02 12:30:31 51°38.864 2°32.201 110 1.2 123 38.5
2005-05-02 12:31:31 51°38.862 2°32.233 74.8 1.2 92 39.7
2005-05-02 12:32:32 51°38.865 2°32.255 65.3 0.8 76 39.4
2005-05-02 12:33:31 51°38.868 2°32.271 62.3 0.6 66 39.5
2005-05-02 12:34:31 51°38.871 2°32.283 60 0.4 79 40
2005-05-02 12:35:31 51°38.873 2°32.292 57.2 0.3 62 40.1
2005-05-02 12:36:31 51°38.875 2°32.298 54.9 0.2 66 40.3
2005-05-02 12:37:32 51°38.877 2°32.301 52.9 0.1 38 40.4
2005-05-02 12:38:31 51°38.878 2°32.302 51.9 0.1 98 40.4
2005-05-02 12:39:31 51°38.878 2°32.302 50.8 -999 113 40.4
2005-05-02 12:40:31 51°38.878 2°32.301 50.1 0.1 203 40.4
2005-05-02 12:41:31 51°38.88 2°32.304 49.6 0.1 220 40.4
2005-05-02 12:42:31 51°38.878 2°32.301 48.7 0.1 226 40.5
2005-05-02 12:43:31 51°38.877 2°32.298 48.2 0.1 226 40.3
2005-05-02 12:44:31 51°38.875 2°32.294 47 0.2 260 40.3
2005-05-02 12:45:31 51°38.873 2°32.289 45.5 0.2 234 40.1
2005-05-02 12:46:31 51°38.871 2°32.284 44.9 0.2 242 40
2005-05-02 12:47:32 51°38.869 2°32.278 43.6 0.3 247 39.8
2005-05-02 12:48:31 51°38.866 2°32.272 43.2 0.3 235 39.4
2005-05-02 12:49:31 51°38.864 2°32.266 44.2 0.2 227 39.5
2005-05-02 12:50:31 51°38.861 2°32.26 45.7 0.3 244 39.7
2005-05-02 12:51:31 51°38.857 2°32.255 46.7 0.3 230 39.6
2005-05-02 12:52:31 51°38.854 2°32.25 46.9 0.3 223 39.7
2005-05-02 12:53:31 51°38.851 2°32.247 47.2 0.3 224 39.3
2005-05-02 12:54:31 51°38.848 2°32.242 48.2 0.3 211 39.4
2005-05-02 12:55:31 51°38.844 2°32.237 48.4 0.3 223 39
2005-05-02 12:56:32 51°38.84 2°32.231 48.6 0.3 223 38.8
2005-05-02 12:57:32 51°38.836 2°32.225 49.4 0.3 224 38.6
2005-05-02 12:58:31 51°38.835 2°32.221 39.9 0.1 283 38.6
2005-05-02 12:59:31 51°38.837 2°32.217 25.5 0.2 309 38.3
2005-05-02 13:00:32 51°38.841 2°32.21 15.7 0.4 323 38.5
2005-05-02 13:01:32 51°38.847 2°32.204 12.4 0.5 326 39.2
2005-05-02 13:02:31 51°38.857 2°32.196 14 0.9 350 38.7
2005-05-02 13:03:31 51°38.872 2°32.194 22.4 0.8 356 39.7
2005-05-02 13:04:32 51°38.883 2°32.192 27 0.6 359 39.5
2005-05-02 13:05:31 51°38.891 2°32.192 32.9 0.5 1 39.3
2005-05-02 13:06:31 51°38.897 2°32.189 33.1 0.4 344 39.3
2005-05-02 13:07:32 51°38.903 2°32.184 35.3 0.2 5 39.7
2005-05-02 13:08:32 51°38.908 2°32.179 40.1 0.4 322 39.9
2005-05-02 13:09:32 51°38.912 2°32.174 42.3 0.3 322 39.6
2005-05-02 13:10:31 51°38.915 2°32.172 47.1 0.2 315 39.9
2005-05-02 13:11:32 51°38.916 2°32.169 50 0.1 285 39.9
2005-05-02 13:12:31 51°38.916 2°32.166 52.5 0.1 217 39.7
2005-05-02 13:13:32 51°38.926 2°32.224 83 3.4 81 40.1
2005-05-02 13:14:32 51°38.885 2°32.34 132.8 6 135 40.3
2005-05-02 13:15:31 51°38.776 2°32.443 147.3 9.6 148 39.7
2005-05-02 13:16:31 51°38.595 2°32.63 147 13.5 148 41.3
2005-05-02 13:17:32 51°38.398 2°32.814 149.2 13.7 150 39.7
2005-05-02 13:18:32 51°38.2 2°32.994 149.7 13.7 151 40.4
2005-05-02 13:19:31 51°38.002 2°33.169 150.1 13.7 151 40.4
2005-05-02 13:20:31 51°37.803 2°33.35 149.5 13.7 150 37.9
2005-05-02 13:21:31 51°37.605 2°33.531 150 13.7 151 35.3
2005-05-02 13:22:31 51°37.407 2°33.706 151 13.6 152 34.1
2005-05-02 13:23:31 51°37.209 2°33.878 149.8 13.6 151 29.4
2005-05-02 13:24:32 51°37.01 2°34.049 149.9 13.4 152 26.1
2005-05-02 13:25:32 51°36.814 2°34.218 148.2 13.2 152 17.1
2005-05-02 13:26:32 51°36.625 2°34.397 144.5 13.2 148 19.4
2005-05-02 13:27:31 51°36.438 2°34.585 145.5 13.4 148 22.9
2005-05-02 13:28:31 51°36.249 2°34.78 146.5 13.5 146 26.7
2005-05-02 13:29:31 51°36.245 2°35.034 50.5 10.7 48 33.6
2005-05-02 13:30:31 51°36.433 2°34.98 345.4 12.7 334 30.9
2005-05-02 13:31:32 51°36.619 2°34.794 336.1 13.2 326 26.1
2005-05-02 13:32:32 51°36.804 2°34.604 337.7 13.2 328 25.4
2005-05-02 13:33:31 51°36.988 2°34.414 338.1 13.2 327 20
2005-05-02 13:34:31 51°37.176 2°34.223 338.1 13.4 327 18
2005-05-02 13:35:32 51°37.369 2°34.039 338.6 13.3 329 24.8
2005-05-02 13:36:32 51°37.559 2°33.859 337.9 13.2 329 30.3
2005-05-02 13:37:32 51°37.746 2°33.672 336.7 13.2 328 33.4
2005-05-02 13:38:32 51°37.933 2°33.487 336.9 13.2 329 37.2
2005-05-02 13:39:32 51°38.119 2°33.306 337.3 13 329 39.6
2005-05-02 13:40:32 51°38.287 2°33.084 324.9 13.2 315 40.7
2005-05-02 13:41:31 51°38.438 2°32.83 321.1 13.3 313 40.5
2005-05-02 13:42:31 51°38.574 2°32.592 321.7 9.8 312 41.2
2005-05-02 13:43:32 51°38.629 2°32.435 302.7 5.9 293 40.2
2005-05-02 13:44:32 51°38.674 2°32.34 337.3 3.1 319 40.9
2005-05-02 13:45:32 51°38.688 2°32.318 19.5 0.6 247 40.2
2005-05-02 13:46:31 51°38.679 2°32.304 45.7 0.8 218 39.8
2005-05-02 13:47:32 51°38.67 2°32.292 59.6 0.8 214 40
2005-05-02 13:48:32 51°38.66 2°32.282 67.9 0.8 210 39.6
2005-05-02 13:49:31 51°38.649 2°32.272 74.1 0.7 207 40.3
2005-05-02 13:50:32 51°38.635 2°32.303 101.4 3.1 117 39.5
2005-05-02 13:51:31 51°38.528 2°32.379 170 10.5 171 39.9
2005-05-02 13:52:32 51°38.297 2°32.384 176.3 14.2 178 40.4
2005-05-02 13:53:32 51°38.059 2°32.386 175.2 14.3 177 40.3
2005-05-02 13:54:32 51°37.82 2°32.393 177.5 14.4 179 39.4
2005-05-02 13:55:32 51°37.582 2°32.421 172.3 14.3 175 38.9
2005-05-02 13:56:31 51°37.358 2°32.52 156.6 14 157 38.2
2005-05-02 13:57:32 51°37.157 2°32.71 142.9 14 146 39.8
2005-05-02 13:58:31 51°36.963 2°32.907 147.2 13.9 149 38.1
2005-05-02 13:59:32 51°36.76 2°33.088 148 13.8 150 35.5
2005-05-02 14:00:32 51°36.559 2°33.267 148.7 13.8 151 35
2005-05-02 14:01:32 51°36.355 2°33.435 150.5 13.8 154 32.1
2005-05-02 14:02:32 51°36.151 2°33.6 150.3 13.8 153 29.7
2005-05-02 14:03:32 51°35.948 2°33.768 149.5 13.7 153 23.9
2005-05-02 14:04:31 51°35.75 2°33.936 149.2 13.6 153 20
2005-05-02 14:05:31 51°35.55 2°34.102 149.9 13.6 153 17.3
2005-05-02 14:06:32 51°35.347 2°34.264 148.1 13.6 152 26.3
2005-05-02 14:07:31 51°35.146 2°34.427 149 13.7 153 31.7
2005-05-02 14:08:31 51°34.942 2°34.597 149.6 13.8 153 34.5
2005-05-02 14:09:32 51°34.737 2°34.769 148.6 13.8 152 36.1
2005-05-02 14:10:31 51°34.539 2°34.941 146.8 13.7 150 34.2
2005-05-02 14:11:31 51°34.34 2°35.124 146.7 13.7 150 27.3
2005-05-02 14:12:32 51°34.143 2°35.315 145.6 13.5 148 24.6
2005-05-02 14:13:32 51°33.949 2°35.505 145 13.7 149 21.1
2005-05-02 14:14:32 51°33.763 2°35.708 142.9 13.7 145 27.7
2005-05-02 14:15:31 51°33.575 2°35.91 143.9 13.7 146 33
2005-05-02 14:16:31 51°33.384 2°36.109 144.8 13.8 147 35.8
2005-05-02 14:17:32 51°33.185 2°36.309 145.4 13.9 148 38.7
2005-05-02 14:18:31 51°32.99 2°36.506 145 14 148 38.9
2005-05-02 14:19:31 51°32.79 2°36.699 145.5 14 149 39.1
2005-05-02 14:20:32 51°32.593 2°36.905 143.7 14 146 38.5
2005-05-02 14:21:31 51°32.402 2°37.107 144.2 14 147 34.6
2005-05-02 14:22:31 51°32.21 2°37.311 144.3 13.7 147 32.3
2005-05-02 14:23:32 51°32.015 2°37.514 144.4 13.7 146 23.3
2005-05-02 14:24:32 51°31.824 2°37.715 144.7 13.6 147 17.8
2005-05-02 14:25:31 51°31.638 2°37.902 144.6 13.5 148 13.7
2005-05-02 14:26:31 51°31.446 2°38.093 143.9 13.7 148 22.7
2005-05-02 14:27:31 51°31.252 2°38.292 144.5 13.9 148 29
2005-05-02 14:28:32 51°31.055 2°38.496 144.2 14 147 36.4
2005-05-02 14:29:32 51°30.86 2°38.702 144.3 13.9 147 35.4
2005-05-02 14:30:32 51°30.666 2°38.902 144.6 14 147 36.9
2005-05-02 14:31:31 51°30.474 2°39.1 143.9 13.9 147 37.3
2005-05-02 14:32:32 51°30.277 2°39.303 143.6 14 146 37.5
2005-05-02 14:33:31 51°30.084 2°39.503 144.4 14 147 37.6
2005-05-02 14:34:32 51°29.885 2°39.706 144.6 14 148 35.7
2005-05-02 14:35:31 51°29.693 2°39.895 144.7 13.9 147 33.4
2005-05-02 14:36:31 51°29.497 2°40.089 145.1 13.9 147 30.3
2005-05-02 14:37:32 51°29.299 2°40.288 145 13.8 147 35.7
2005-05-02 14:38:31 51°29.105 2°40.481 145.8 13.9 149 32.4
2005-05-02 14:39:31 51°28.908 2°40.674 146 13.9 149 35.2
2005-05-02 14:40:31 51°28.713 2°40.869 144.6 13.8 148 33.8
2005-05-02 14:41:31 51°28.517 2°41.061 145.2 13.7 149 30.4
2005-05-02 14:42:31 51°28.321 2°41.257 144.8 13.8 147 30
2005-05-02 14:43:31 51°28.125 2°41.45 145.2 13.9 148 28.7
2005-05-02 14:44:31 51°27.931 2°41.647 145.1 13.9 148 29.7
2005-05-02 14:45:32 51°27.733 2°41.846 145.9 13.9 149 31.1
2005-05-02 14:46:31 51°27.54 2°42.038 144.7 13.8 147 31.5
2005-05-02 14:47:31 51°27.346 2°42.235 144 13.8 147 30.2
2005-05-02 14:48:31 51°27.151 2°42.436 144.2 14 147 30.1
2005-05-02 14:49:31 51°26.957 2°42.64 143.7 14 147 30.7
2005-05-02 14:50:31 51°26.761 2°42.839 145 13.8 148 25.8
2005-05-02 14:51:32 51°26.563 2°43.036 143.7 13.9 148 26.3
2005-05-02 14:52:31 51°26.372 2°43.232 144.5 13.8 147 25.6
2005-05-02 14:53:32 51°26.18 2°43.432 144.5 13.7 147 24.3
2005-05-02 14:54:31 51°25.989 2°43.629 144.8 13.7 147 24.6
2005-05-02 14:55:31 51°25.799 2°43.829 144.6 13.8 148 22
2005-05-02 14:56:32 51°25.605 2°44.032 144.4 13.7 147 24.5
2005-05-02 14:57:31 51°25.416 2°44.227 144.6 13.8 147 22.9
2005-05-02 14:58:32 51°25.222 2°44.431 144.4 13.9 147 23.8
2005-05-02 14:59:31 51°25.031 2°44.629 144.4 13.8 147 25.1
2005-05-02 15:00:32 51°24.838 2°44.831 144.6 13.7 148 24.4
2005-05-02 15:01:31 51°24.649 2°45.027 144.2 13.6 147 25.9
2005-05-02 15:02:32 51°24.455 2°45.224 144.1 13.7 147 25.6
2005-05-02 15:03:32 51°24.262 2°45.419 144 13.6 148 25.5
2005-05-02 15:04:31 51°24.07 2°45.606 145.2 13.8 149 26.5
2005-05-02 15:05:31 51°23.877 2°45.798 143.3 13.6 147 26.7
2005-05-02 15:06:31 51°23.689 2°45.998 142.6 13.5 145 27.1
2005-05-02 15:07:31 51°23.504 2°46.201 143.7 13.5 146 26.8
2005-05-02 15:08:32 51°23.314 2°46.399 144 13.5 147 23.6
2005-05-02 15:09:31 51°23.127 2°46.592 144.5 13.5 147 23.9
2005-05-02 15:10:32 51°22.935 2°46.792 144.2 13.5 147 21.5
2005-05-02 15:11:32 51°22.746 2°46.986 143.7 13.6 147 19.9
2005-05-02 15:12:31 51°22.558 2°47.183 144 13.6 147 18.3
2005-05-02 15:13:32 51°22.365 2°47.389 142.8 13.7 145 18.2
2005-05-02 15:14:32 51°22.175 2°47.593 144.8 13.8 146 22.7
2005-05-02 15:15:32 51°21.988 2°47.793 144.8 13.6 146 23.5
2005-05-02 15:16:32 51°21.798 2°47.992 145 13.6 147 23.6
2005-05-02 15:17:31 51°21.613 2°48.185 144 13.2 147 22.8
2005-05-02 15:18:31 51°21.426 2°48.378 145 13.4 148 22.2
2005-05-02 15:19:32 51°21.237 2°48.572 144.4 13.3 147 20.7
2005-05-02 15:20:31 51°21.054 2°48.76 144.9 13.3 148 20.5
2005-05-02 15:21:31 51°20.868 2°48.95 144.3 13.3 148 21
2005-05-02 15:22:32 51°20.678 2°49.139 144.7 13.3 148 22.5
2005-05-02 15:23:31 51°20.493 2°49.326 143.6 13.3 148 22.4
2005-05-02 15:24:32 51°20.305 2°49.517 144 13.3 147 21.4
2005-05-02 15:25:31 51°20.119 2°49.707 144.8 13.3 147 18.7
2005-05-02 15:26:32 51°19.932 2°49.902 144.1 13.4 147 15.9
2005-05-02 15:27:32 51°19.745 2°50.101 144.3 13.4 146 14.4
2005-05-02 15:28:32 51°19.562 2°50.296 144 13.2 147 12.1
2005-05-02 15:29:32 51°19.365 2°50.464 152.1 13.3 153 12.3
2005-05-02 15:30:32 51°19.161 2°50.615 153 13.5 155 13.6
2005-05-02 15:31:32 51°18.956 2°50.763 151.7 13.6 155 14.6
2005-05-02 15:32:32 51°18.749 2°50.911 152.4 13.5 156 14.4
2005-05-02 15:33:32 51°18.542 2°51.057 152.6 13.5 156 13.9
2005-05-02 15:34:32 51°18.337 2°51.199 153.1 13.6 157 12.9
2005-05-02 15:35:32 51°18.129 2°51.346 152.1 13.5 156 11.8
2005-05-02 15:36:31 51°17.929 2°51.496 148.4 13.4 154 10.6
2005-05-02 15:37:32 51°17.728 2°51.67 148.7 13.6 152 10
2005-05-02 15:38:32 51°17.53 2°51.843 147.5 13.7 152 10.2
2005-05-02 15:39:32 51°17.327 2°52.02 148 13.9 151 10.8
2005-05-02 15:40:32 51°17.12 2°52.175 152.3 13.8 155 10.4
2005-05-02 15:41:32 51°16.912 2°52.33 151.9 13.8 155 9.7
2005-05-02 15:42:32 51°16.702 2°52.486 152.6 13.8 155 9.6
2005-05-02 15:43:32 51°16.492 2°52.644 152.9 13.9 154 11.6
2005-05-02 15:44:32 51°16.286 2°52.802 152.3 13.8 155 12.1
2005-05-02 15:45:32 51°16.081 2°52.951 152.2 13.4 155 11.9
2005-05-02 15:46:31 51°15.88 2°53.102 151.2 13.5 155 11.6
2005-05-02 15:47:31 51°15.667 2°53.222 158.9 13.6 162 11.2
2005-05-02 15:48:31 51°15.452 2°53.338 158 13.6 162 10.7
2005-05-02 15:49:32 51°15.251 2°53.439 158.4 11.8 162 10.2
2005-05-02 15:50:32 51°15.066 2°53.537 158.2 11.6 161 9.9
2005-05-02 15:51:32 51°14.907 2°53.627 153.4 8.5 158 10
2005-05-02 15:52:32 51°14.807 2°53.71 145.1 6.4 151 10.4
2005-05-02 15:53:32 51°14.705 2°53.815 137.1 7.7 139 10.4
2005-05-02 15:54:32 51°14.622 2°53.987 120.2 8.7 123 11.2
2005-05-02 15:55:32 51°14.538 2°54.219 117.5 10.9 117 10.9
2005-05-02 15:56:31 51°14.458 2°54.49 113.7 11.6 113 10.5
2005-05-02 15:57:32 51°14.406 2°54.78 100.9 11.2 100 10.4
2005-05-02 15:58:31 51°14.357 2°55.053 117.1 10.7 115 10.3
2005-05-02 15:59:31 51°14.27 2°55.245 133.8 8.7 131 10.8
2005-05-02 16:00:32 51°14.172 2°55.374 147.2 7.2 143 10.6
2005-05-02 16:01:31 51°14.07 2°55.45 158.9 6.6 157 9.4
2005-05-02 16:02:31 51°13.972 2°55.521 158.5 6.8 155 10.1
2005-05-02 16:03:32 51°13.855 2°55.602 158.2 7.9 156 9.9
2005-05-02 16:04:32 51°13.751 2°55.728 137.7 7.8 134 9.9
2005-05-02 16:05:32 51°13.678 2°55.868 130.3 6.4 128 9.3
2005-05-02 16:06:32 51°13.632 2°55.974 124.6 4.4 122 9.4
2005-05-02 16:07:31 51°13.606 2°56.062 116.3 2.9 114 8.8
2005-05-02 16:08:31 51°13.595 2°56.1 119.2 0.2 176 -999